createdAt,value
2018-12-07T00:00:29.569Z,1003.88
2018-12-07T00:01:29.562Z,1003.85
2018-12-07T00:02:29.533Z,1003.86
2018-12-07T00:03:29.560Z,1003.82
2018-12-07T00:04:29.528Z,1003.80
2018-12-07T00:05:29.516Z,1003.85
2018-12-07T00:06:29.498Z,1003.77
2018-12-07T00:07:29.494Z,1003.82
2018-12-07T00:08:29.502Z,1003.80
2018-12-07T00:09:29.474Z,1003.76
2018-12-07T00:10:29.458Z,1003.79
2018-12-07T00:11:29.451Z,1003.76
2018-12-07T00:12:29.446Z,1003.77
2018-12-07T00:13:29.449Z,1003.81
2018-12-07T00:14:29.416Z,1003.74
2018-12-07T00:15:29.396Z,1003.78
2018-12-07T00:16:29.387Z,1003.77
2018-12-07T00:17:29.384Z,1003.80
2018-12-07T00:18:29.393Z,1003.74
2018-12-07T00:19:29.357Z,1003.71
2018-12-07T00:20:29.341Z,1003.75
2018-12-07T00:21:29.342Z,1003.67
2018-12-07T00:22:29.340Z,1003.66
2018-12-07T00:23:29.360Z,1003.73
2018-12-07T00:25:38.759Z,1003.62
2018-12-07T00:26:39.479Z,1003.63
2018-12-07T00:27:39.467Z,1003.71
2018-12-07T00:28:39.495Z,1003.70
2018-12-07T00:29:39.454Z,1003.66
2018-12-07T00:30:39.444Z,1003.66
2018-12-07T00:31:39.446Z,1003.67
2018-12-07T00:32:39.422Z,1003.64
2018-12-07T00:33:39.440Z,1003.64
2018-12-07T00:34:39.399Z,1003.67
2018-12-07T00:35:39.384Z,1003.68
2018-12-07T00:36:39.384Z,1003.59
2018-12-07T00:37:39.368Z,1003.65
2018-12-07T00:38:39.375Z,1003.61
2018-12-07T00:39:39.359Z,1003.61
2018-12-07T00:40:39.336Z,1003.55
2018-12-07T00:41:39.428Z,1003.46
2018-12-07T00:42:40.257Z,1003.48
2018-12-07T00:43:39.333Z,1003.52
2018-12-07T00:44:39.305Z,1003.54
2018-12-07T00:45:39.275Z,1003.53
2018-12-07T00:46:39.267Z,1003.55
2018-12-07T00:47:39.257Z,1003.45
2018-12-07T00:48:39.271Z,1003.50
2018-12-07T00:49:39.243Z,1003.50
2018-12-07T00:50:39.230Z,1003.51
2018-12-07T00:51:39.214Z,1003.48
2018-12-07T00:52:39.197Z,1003.53
2018-12-07T00:53:39.218Z,1003.48
2018-12-07T00:54:39.191Z,1003.45
2018-12-07T00:55:39.179Z,1003.49
2018-12-07T00:56:39.156Z,1003.40
2018-12-07T00:57:39.164Z,1003.47
2018-12-07T00:58:39.167Z,1003.47
2018-12-07T00:59:39.131Z,1003.47
2018-12-07T01:00:39.124Z,1003.46
2018-12-07T01:01:39.116Z,1003.39
2018-12-07T01:02:39.102Z,1003.46
2018-12-07T01:03:39.117Z,1003.44
2018-12-07T01:04:39.082Z,1003.43
2018-12-07T01:05:39.095Z,1003.42
2018-12-07T01:06:39.056Z,1003.48
2018-12-07T01:07:39.046Z,1003.49
2018-12-07T01:08:39.035Z,1003.42
2018-12-07T01:09:39.035Z,1003.44
2018-12-07T01:10:39.011Z,1003.43
2018-12-07T01:11:39.012Z,1003.43
2018-12-07T01:12:38.994Z,1003.40
2018-12-07T01:13:38.976Z,1003.37
2018-12-07T01:14:38.993Z,1003.39
2018-12-07T01:15:38.966Z,1003.43
2018-12-07T01:16:38.941Z,1003.39
2018-12-07T01:17:38.952Z,1003.41
2018-12-07T01:18:38.923Z,1003.39
2018-12-07T01:19:38.936Z,1003.35
2018-12-07T01:20:38.910Z,1003.34
2018-12-07T01:21:38.896Z,1003.36
2018-12-07T01:22:38.888Z,1003.23
2018-12-07T01:23:38.961Z,1003.25
2018-12-07T01:24:38.882Z,1003.31
2018-12-07T01:25:38.849Z,1003.29
2018-12-07T01:26:38.847Z,1003.28
2018-12-07T01:27:38.829Z,1003.28
2018-12-07T01:28:38.814Z,1003.24
2018-12-07T01:29:38.831Z,1003.23
2018-12-07T01:30:38.790Z,1003.26
2018-12-07T01:31:38.777Z,1003.18
2018-12-07T01:32:38.768Z,1003.20
2018-12-07T01:33:38.770Z,1003.18
2018-12-07T01:34:38.779Z,1003.16
2018-12-07T01:35:38.760Z,1003.13
2018-12-07T01:36:38.728Z,1003.13
2018-12-07T01:37:38.718Z,1003.13
2018-12-07T01:38:38.718Z,1003.08
2018-12-07T01:39:38.719Z,1003.11
2018-12-07T01:40:38.693Z,1003.10
2018-12-07T01:41:38.678Z,1003.10
2018-12-07T01:42:38.658Z,1003.08
2018-12-07T01:43:38.663Z,1003.05
2018-12-07T01:44:38.677Z,1003.05
2018-12-07T01:45:38.641Z,1002.96
2018-12-07T01:46:38.644Z,1002.98
2018-12-07T01:47:38.618Z,1003.06
2018-12-07T01:48:38.607Z,1002.96
2018-12-07T01:49:38.611Z,1002.86
2018-12-07T01:50:38.588Z,1002.89
2018-12-07T01:51:38.578Z,1002.92
2018-12-07T01:52:38.561Z,1002.85
2018-12-07T01:53:38.545Z,1002.92
2018-12-07T01:54:38.567Z,1002.88
2018-12-07T01:55:38.533Z,1002.89
2018-12-07T01:56:38.518Z,1002.86
2018-12-07T01:57:38.515Z,1002.87
2018-12-07T01:58:38.508Z,1002.83
2018-12-07T01:59:38.509Z,1002.81
2018-12-07T02:00:38.478Z,1002.89
2018-12-07T02:01:38.453Z,1002.86
2018-12-07T02:02:38.445Z,1002.89
2018-12-07T02:03:38.448Z,1002.85
2018-12-07T02:04:38.459Z,1002.85
2018-12-07T02:05:38.437Z,1002.83
2018-12-07T02:06:38.406Z,1002.80
2018-12-07T02:07:38.389Z,1002.82
2018-12-07T02:08:38.393Z,1002.83
2018-12-07T02:09:38.389Z,1002.82
2018-12-07T02:10:38.363Z,1002.84
2018-12-07T02:11:38.350Z,1002.80
2018-12-07T02:12:38.338Z,1002.78
2018-12-07T02:13:38.331Z,1002.86
2018-12-07T02:14:38.349Z,1002.79
2018-12-07T02:15:38.343Z,1002.58
2018-12-07T02:16:38.334Z,1002.71
2018-12-07T02:17:38.280Z,1002.85
2018-12-07T02:18:38.287Z,1002.81
2018-12-07T02:19:38.287Z,1002.77
2018-12-07T02:20:38.257Z,1002.80
2018-12-07T02:21:38.239Z,1002.72
2018-12-07T02:22:38.234Z,1002.72
2018-12-07T02:23:38.223Z,1002.65
2018-12-07T02:24:38.238Z,1002.78
2018-12-07T02:26:47.400Z,1002.67
2018-12-07T02:27:48.388Z,1002.68
2018-12-07T02:28:48.367Z,1002.62
2018-12-07T02:29:48.400Z,1002.64
2018-12-07T02:30:48.359Z,1002.65
2018-12-07T02:31:48.344Z,1002.57
2018-12-07T02:32:48.334Z,1002.61
2018-12-07T02:33:48.311Z,1002.53
2018-12-07T02:34:48.334Z,1002.55
2018-12-07T02:35:48.290Z,1002.48
2018-12-07T02:36:48.306Z,1002.48
2018-12-07T02:37:48.281Z,1002.48
2018-12-07T02:38:48.268Z,1002.48
2018-12-07T02:39:48.277Z,1002.42
2018-12-07T02:40:48.256Z,1002.48
2018-12-07T02:41:48.223Z,1002.35
2018-12-07T02:42:48.209Z,1002.40
2018-12-07T02:43:48.217Z,1002.40
2018-12-07T02:44:48.227Z,1002.37
2018-12-07T02:45:48.209Z,1002.39
2018-12-07T02:46:48.169Z,1002.39
2018-12-07T02:47:48.168Z,1002.39
2018-12-07T02:48:48.151Z,1002.28
2018-12-07T02:49:48.171Z,1002.33
2018-12-07T02:50:48.131Z,1002.30
2018-12-07T02:51:48.111Z,1002.27
2018-12-07T02:52:48.638Z,1002.25
2018-12-07T02:53:48.107Z,1002.32
2018-12-07T02:54:48.113Z,1002.30
2018-12-07T02:55:48.093Z,1002.30
2018-12-07T02:56:48.069Z,1002.25
2018-12-07T02:57:48.059Z,1002.23
2018-12-07T02:58:48.041Z,1002.24
2018-12-07T02:59:48.031Z,1002.21
2018-12-07T03:00:48.020Z,1002.20
2018-12-07T03:01:48.003Z,1002.20
2018-12-07T03:02:48.001Z,1002.23
2018-12-07T03:03:47.983Z,1002.19
2018-12-07T03:04:47.968Z,1002.21
2018-12-07T03:05:47.989Z,1002.19
2018-12-07T03:06:47.962Z,1002.14
2018-12-07T03:07:47.948Z,1002.11
2018-12-07T03:08:47.926Z,1002.20
2018-12-07T03:09:47.925Z,1002.17
2018-12-07T03:10:47.944Z,1002.15
2018-12-07T03:11:47.905Z,1002.10
2018-12-07T03:12:47.891Z,1002.12
2018-12-07T03:13:47.875Z,1002.12
2018-12-07T03:14:47.859Z,1002.06
2018-12-07T03:15:47.909Z,1002.07
2018-12-07T03:16:47.837Z,1002.04
2018-12-07T03:17:47.849Z,1002.03
2018-12-07T03:18:47.816Z,1002.04
2018-12-07T03:19:47.803Z,1002.01
2018-12-07T03:20:47.821Z,1002.01
2018-12-07T03:21:47.795Z,1002.03
2018-12-07T03:22:47.772Z,1001.96
2018-12-07T03:23:47.766Z,1002.05
2018-12-07T03:24:47.763Z,1001.99
2018-12-07T03:25:47.781Z,1001.97
2018-12-07T03:26:47.735Z,1002.00
2018-12-07T03:27:47.722Z,1002.00
2018-12-07T03:28:47.716Z,1001.99
2018-12-07T03:29:47.698Z,1001.99
2018-12-07T03:30:47.713Z,1001.96
2018-12-07T03:31:47.683Z,1001.92
2018-12-07T03:32:47.664Z,1001.85
2018-12-07T03:33:47.655Z,1001.83
2018-12-07T03:34:47.647Z,1001.84
2018-12-07T03:35:47.658Z,1001.87
2018-12-07T03:36:47.626Z,1001.83
2018-12-07T03:37:47.621Z,1001.80
2018-12-07T03:38:47.624Z,1001.78
2018-12-07T03:39:47.592Z,1001.81
2018-12-07T03:40:47.598Z,1001.79
2018-12-07T03:41:47.569Z,1001.82
2018-12-07T03:42:47.555Z,1001.81
2018-12-07T03:43:47.558Z,1001.75
2018-12-07T03:44:47.529Z,1001.77
2018-12-07T03:45:47.551Z,1001.69
2018-12-07T03:46:47.522Z,1001.73
2018-12-07T03:47:47.519Z,1001.72
2018-12-07T03:48:47.494Z,1001.72
2018-12-07T03:49:47.477Z,1001.69
2018-12-07T03:50:47.495Z,1001.67
2018-12-07T03:51:47.481Z,1001.64
2018-12-07T03:52:47.444Z,1001.69
2018-12-07T03:53:47.434Z,1001.62
2018-12-07T03:54:47.420Z,1001.60
2018-12-07T03:55:47.437Z,1001.61
2018-12-07T03:56:47.396Z,1001.60
2018-12-07T03:57:47.400Z,1001.57
2018-12-07T03:58:47.391Z,1001.57
2018-12-07T03:59:47.375Z,1001.52
2018-12-07T04:00:47.380Z,1001.57
2018-12-07T04:01:47.350Z,1001.54
2018-12-07T04:02:47.335Z,1001.54
2018-12-07T04:03:47.330Z,1001.53
2018-12-07T04:04:47.305Z,1001.49
2018-12-07T04:05:47.317Z,1001.50
2018-12-07T04:06:47.301Z,1001.51
2018-12-07T04:07:47.284Z,1001.46
2018-12-07T04:08:47.285Z,1001.47
2018-12-07T04:09:47.262Z,1001.48
2018-12-07T04:10:47.278Z,1001.49
2018-12-07T04:11:47.242Z,1001.48
2018-12-07T04:12:47.217Z,1001.50
2018-12-07T04:13:47.211Z,1001.48
2018-12-07T04:14:47.195Z,1001.52
2018-12-07T04:15:47.217Z,1001.44
2018-12-07T04:16:47.189Z,1001.43
2018-12-07T04:17:47.175Z,1001.40
2018-12-07T04:18:47.178Z,1001.43
2018-12-07T04:19:47.155Z,1001.40
2018-12-07T04:20:47.158Z,1001.35
2018-12-07T04:21:47.125Z,1001.36
2018-12-07T04:22:47.123Z,1001.34
2018-12-07T04:23:47.106Z,1001.35
2018-12-07T04:24:47.101Z,1001.28
2018-12-07T04:25:47.099Z,1001.31
2018-12-07T04:27:56.266Z,1001.25
2018-12-07T04:28:57.252Z,1001.28
2018-12-07T04:29:57.228Z,1001.30
2018-12-07T04:30:57.270Z,1001.27
2018-12-07T04:31:57.215Z,1001.17
2018-12-07T04:32:57.211Z,1001.21
2018-12-07T04:33:57.201Z,1001.21
2018-12-07T04:34:57.189Z,1001.23
2018-12-07T04:35:57.198Z,1001.14
2018-12-07T04:36:57.170Z,1001.22
2018-12-07T04:37:57.161Z,1001.17
2018-12-07T04:38:57.134Z,1001.15
2018-12-07T04:39:57.136Z,1001.19
2018-12-07T04:40:57.250Z,1001.14
2018-12-07T04:41:57.105Z,1001.15
2018-12-07T04:42:57.088Z,1001.19
2018-12-07T04:43:57.087Z,1001.12
2018-12-07T04:44:57.071Z,1001.18
2018-12-07T04:45:57.081Z,1001.10
2018-12-07T04:46:57.053Z,1001.13
2018-12-07T04:47:57.039Z,1001.14
2018-12-07T04:48:57.032Z,1001.13
2018-12-07T04:49:57.012Z,1001.10
2018-12-07T04:50:57.119Z,1001.13
2018-12-07T04:51:57.007Z,1001.14
2018-12-07T04:52:56.981Z,1001.11
2018-12-07T04:53:56.995Z,1001.08
2018-12-07T04:54:56.964Z,1001.11
2018-12-07T04:55:56.963Z,1001.10
2018-12-07T04:56:56.983Z,1001.11
2018-12-07T04:57:56.926Z,1001.08
2018-12-07T04:58:56.935Z,1001.04
2018-12-07T04:59:56.913Z,1000.98
2018-12-07T05:00:56.908Z,1001.04
2018-12-07T05:01:56.908Z,1001.02
2018-12-07T05:02:57.022Z,1000.97
2018-12-07T05:03:56.880Z,1000.99
2018-12-07T05:04:56.856Z,1001.00
2018-12-07T05:05:56.878Z,1001.00
2018-12-07T05:06:56.859Z,1000.92
2018-12-07T05:07:56.835Z,1000.96
2018-12-07T05:08:56.811Z,1000.95
2018-12-07T05:09:56.807Z,1000.95
2018-12-07T05:10:56.797Z,1000.90
2018-12-07T05:11:56.798Z,1000.96
2018-12-07T05:12:56.773Z,1000.92
2018-12-07T05:13:56.765Z,1000.91
2018-12-07T05:14:56.749Z,1000.92
2018-12-07T05:15:56.758Z,1000.89
2018-12-07T05:16:56.753Z,1000.91
2018-12-07T05:17:56.716Z,1000.86
2018-12-07T05:18:56.713Z,1000.89
2018-12-07T05:19:56.702Z,1000.90
2018-12-07T05:20:56.695Z,1000.84
2018-12-07T05:21:56.697Z,1000.88
2018-12-07T05:22:56.679Z,1000.86
2018-12-07T05:23:56.667Z,1000.81
2018-12-07T05:24:56.642Z,1000.82
2018-12-07T05:25:56.654Z,1000.83
2018-12-07T05:26:56.640Z,1000.80
2018-12-07T05:27:56.618Z,1000.84
2018-12-07T05:28:56.604Z,1000.80
2018-12-07T05:29:56.602Z,1000.73
2018-12-07T05:30:56.582Z,1000.75
2018-12-07T05:31:56.582Z,1000.78
2018-12-07T05:32:56.562Z,1000.72
2018-12-07T05:33:56.553Z,1000.74
2018-12-07T05:34:56.546Z,1000.75
2018-12-07T05:35:56.534Z,1000.72
2018-12-07T05:36:56.535Z,1000.76
2018-12-07T05:37:56.499Z,1000.74
2018-12-07T05:38:56.484Z,1000.66
2018-12-07T05:39:56.477Z,1000.59
2018-12-07T05:40:56.475Z,1000.65
2018-12-07T05:41:56.486Z,1000.68
2018-12-07T05:42:56.443Z,1000.62
2018-12-07T05:43:56.442Z,1000.63
2018-12-07T05:44:56.431Z,1000.64
2018-12-07T05:45:56.427Z,1000.60
2018-12-07T05:46:56.425Z,1000.58
2018-12-07T05:47:56.400Z,1000.57
2018-12-07T05:48:56.383Z,1000.53
2018-12-07T05:49:56.370Z,1000.55
2018-12-07T05:50:56.361Z,1000.51
2018-12-07T05:51:56.372Z,1000.48
2018-12-07T05:52:56.352Z,1000.49
2018-12-07T05:53:56.346Z,1000.48
2018-12-07T05:54:56.321Z,1000.46
2018-12-07T05:55:56.311Z,1000.46
2018-12-07T05:56:56.311Z,1000.48
2018-12-07T05:57:56.295Z,1000.47
2018-12-07T05:58:56.320Z,1000.45
2018-12-07T05:59:56.269Z,1000.49
2018-12-07T06:00:56.248Z,1000.42
2018-12-07T06:01:56.266Z,1000.47
2018-12-07T06:02:56.224Z,1000.45
2018-12-07T06:03:56.233Z,1000.38
2018-12-07T06:04:56.213Z,1000.43
2018-12-07T06:05:56.203Z,1000.40
2018-12-07T06:06:56.201Z,1000.42
2018-12-07T06:07:56.202Z,1000.34
2018-12-07T06:08:56.161Z,1000.31
2018-12-07T06:09:56.152Z,1000.35
2018-12-07T06:10:56.135Z,1000.37
2018-12-07T06:11:57.051Z,1000.35
2018-12-07T06:12:56.131Z,1000.37
2018-12-07T06:13:56.113Z,1000.37
2018-12-07T06:14:56.115Z,1000.34
2018-12-07T06:15:56.095Z,1000.30
2018-12-07T06:16:56.084Z,1000.33
2018-12-07T06:17:56.093Z,1000.36
2018-12-07T06:18:56.046Z,1000.30
2018-12-07T06:19:56.046Z,1000.21
2018-12-07T06:20:56.039Z,1000.24
2018-12-07T06:21:56.022Z,1000.15
2018-12-07T06:22:56.023Z,1000.12
2018-12-07T06:23:56.015Z,1000.10
2018-12-07T06:24:55.988Z,1000.20
2018-12-07T06:25:55.976Z,1000.11
2018-12-07T06:26:55.971Z,1000.14
2018-12-07T06:29:05.474Z,1000.08
2018-12-07T06:30:06.432Z,1000.09
2018-12-07T06:31:06.438Z,1000.10
2018-12-07T06:32:06.419Z,1000.08
2018-12-07T06:33:06.410Z,1000.06
2018-12-07T06:34:06.420Z,1000.06
2018-12-07T06:35:06.378Z,1000.04
2018-12-07T06:36:06.363Z,1000.03
2018-12-07T06:37:06.364Z,1000.02
2018-12-07T06:38:06.357Z,1000.00
2018-12-07T06:39:06.349Z,1000.00
2018-12-07T06:40:06.395Z,1000.00
2018-12-07T06:41:06.321Z,999.94
2018-12-07T06:42:06.306Z,999.94
2018-12-07T06:43:06.316Z,999.94
2018-12-07T06:44:06.357Z,999.96
2018-12-07T06:45:06.282Z,999.92
2018-12-07T06:46:06.260Z,999.89
2018-12-07T06:47:06.284Z,999.87
2018-12-07T06:48:06.239Z,999.88
2018-12-07T06:49:06.248Z,999.84
2018-12-07T06:50:06.286Z,999.82
2018-12-07T06:51:06.210Z,999.80
2018-12-07T06:52:06.412Z,999.81
2018-12-07T06:53:06.185Z,999.84
2018-12-07T06:54:06.194Z,999.83
2018-12-07T06:55:06.168Z,999.78
2018-12-07T06:56:06.156Z,999.73
2018-12-07T06:57:06.131Z,999.75
2018-12-07T06:58:06.123Z,999.67
2018-12-07T06:59:06.142Z,999.67
2018-12-07T07:00:06.137Z,999.62
2018-12-07T07:01:06.095Z,999.60
2018-12-07T07:02:06.097Z,999.59
2018-12-07T07:03:06.075Z,999.59
2018-12-07T07:04:06.088Z,999.60
2018-12-07T07:05:06.071Z,999.54
2018-12-07T07:06:06.059Z,999.51
2018-12-07T07:07:06.047Z,999.55
2018-12-07T07:08:06.050Z,999.54
2018-12-07T07:09:06.020Z,999.48
2018-12-07T07:10:05.992Z,999.51
2018-12-07T07:11:05.999Z,999.50
2018-12-07T07:12:05.966Z,999.51
2018-12-07T07:13:05.958Z,999.54
2018-12-07T07:14:05.963Z,999.50
2018-12-07T07:15:05.994Z,999.53
2018-12-07T07:16:05.924Z,999.52
2018-12-07T07:17:05.918Z,999.45
2018-12-07T07:18:05.927Z,999.48
2018-12-07T07:19:05.899Z,999.46
2018-12-07T07:20:05.904Z,999.47
2018-12-07T07:21:05.886Z,999.47
2018-12-07T07:22:05.870Z,999.44
2018-12-07T07:23:05.849Z,999.41
2018-12-07T07:24:05.844Z,999.37
2018-12-07T07:25:05.858Z,999.38
2018-12-07T07:26:05.815Z,999.39
2018-12-07T07:27:05.801Z,999.38
2018-12-07T07:28:05.935Z,999.25
2018-12-07T07:29:05.802Z,999.40
2018-12-07T07:30:05.953Z,999.36
2018-12-07T07:31:05.785Z,999.34
2018-12-07T07:32:05.754Z,999.31
2018-12-07T07:33:05.757Z,999.26
2018-12-07T07:34:05.778Z,999.21
2018-12-07T07:35:05.745Z,999.20
2018-12-07T07:36:05.718Z,999.22
2018-12-07T07:37:05.704Z,999.20
2018-12-07T07:38:05.681Z,999.19
2018-12-07T07:39:05.681Z,999.18
2018-12-07T07:40:05.682Z,999.20
2018-12-07T07:41:05.662Z,999.20
2018-12-07T07:42:05.651Z,999.22
2018-12-07T07:43:05.624Z,999.21
2018-12-07T07:44:05.623Z,999.25
2018-12-07T07:45:05.639Z,999.23
2018-12-07T07:46:05.622Z,999.20
2018-12-07T07:47:05.593Z,999.19
2018-12-07T07:48:05.684Z,999.21
2018-12-07T07:49:05.588Z,999.14
2018-12-07T07:50:05.582Z,999.07
2018-12-07T07:51:05.543Z,999.12
2018-12-07T07:52:05.534Z,999.12
2018-12-07T07:53:05.521Z,999.12
2018-12-07T07:54:05.526Z,999.08
2018-12-07T07:55:05.522Z,999.05
2018-12-07T07:56:05.953Z,999.10
2018-12-07T07:57:05.482Z,999.07
2018-12-07T07:58:05.474Z,999.04
2018-12-07T07:59:05.462Z,999.05
2018-12-07T08:00:05.532Z,998.99
2018-12-07T08:01:05.441Z,999.02
2018-12-07T08:02:05.423Z,998.95
2018-12-07T08:03:05.415Z,999.02
2018-12-07T08:04:05.393Z,998.95
2018-12-07T08:05:05.400Z,998.98
2018-12-07T08:06:05.395Z,998.95
2018-12-07T08:07:05.463Z,998.92
2018-12-07T08:08:05.350Z,998.95
2018-12-07T08:09:05.340Z,998.95
2018-12-07T08:10:07.263Z,998.98
2018-12-07T08:11:05.343Z,998.81
2018-12-07T08:12:05.305Z,998.93
2018-12-07T08:13:05.307Z,998.85
2018-12-07T08:14:05.286Z,998.82
2018-12-07T08:15:05.289Z,998.88
2018-12-07T08:16:05.297Z,998.83
2018-12-07T08:17:05.259Z,998.83
2018-12-07T08:18:05.253Z,998.84
2018-12-07T08:19:05.249Z,998.81
2018-12-07T08:20:05.425Z,998.79
2018-12-07T08:21:05.244Z,998.74
2018-12-07T08:22:06.161Z,998.77
2018-12-07T08:23:05.303Z,998.75
2018-12-07T08:24:05.176Z,998.73
2018-12-07T08:25:05.185Z,998.69
2018-12-07T08:26:05.183Z,998.75
2018-12-07T08:27:05.263Z,998.69
2018-12-07T08:28:05.230Z,998.72
2018-12-07T08:30:14.376Z,998.77
2018-12-07T08:31:16.131Z,998.76
2018-12-07T08:32:15.433Z,998.71
2018-12-07T08:33:15.320Z,998.72
2018-12-07T08:34:15.315Z,998.73
2018-12-07T08:35:15.296Z,998.73
2018-12-07T08:36:15.309Z,998.73
2018-12-07T08:37:15.357Z,998.74
2018-12-07T08:38:15.302Z,998.69
2018-12-07T08:39:15.266Z,998.76
2018-12-07T08:40:15.252Z,998.67
2018-12-07T08:41:15.535Z,998.71
2018-12-07T08:42:15.353Z,998.66
2018-12-07T08:43:15.211Z,998.62
2018-12-07T08:44:15.213Z,998.53
2018-12-07T08:45:15.182Z,998.59
2018-12-07T08:46:15.209Z,998.55
2018-12-07T08:47:15.645Z,998.56
2018-12-07T08:48:15.195Z,998.54
2018-12-07T08:49:15.155Z,998.49
2018-12-07T08:50:15.142Z,998.54
2018-12-07T08:51:15.152Z,998.49
2018-12-07T08:52:15.116Z,998.47
2018-12-07T08:53:15.101Z,998.44
2018-12-07T08:54:15.098Z,998.47
2018-12-07T08:55:15.105Z,998.45
2018-12-07T08:56:15.149Z,998.42
2018-12-07T08:57:15.087Z,998.44
2018-12-07T08:59:24.453Z,998.39
2018-12-07T09:00:25.307Z,998.38
2018-12-07T09:01:25.305Z,998.38
2018-12-07T09:02:25.259Z,998.39
2018-12-07T09:03:25.267Z,998.35
2018-12-07T09:04:25.257Z,998.34
2018-12-07T09:05:25.244Z,998.33
2018-12-07T09:06:25.251Z,998.30
2018-12-07T09:07:25.230Z,998.27
2018-12-07T09:08:25.212Z,998.26
2018-12-07T09:09:25.226Z,998.27
2018-12-07T09:10:25.171Z,998.27
2018-12-07T09:11:25.201Z,998.25
2018-12-07T09:12:25.177Z,998.25
2018-12-07T09:13:25.158Z,998.24
2018-12-07T09:14:25.200Z,998.20
2018-12-07T09:15:25.116Z,998.24
2018-12-07T09:16:25.142Z,998.12
2018-12-07T09:17:25.124Z,998.20
2018-12-07T09:18:25.145Z,998.23
2018-12-07T09:19:25.120Z,998.20
2018-12-07T09:20:26.566Z,998.15
2018-12-07T09:21:25.091Z,998.18
2018-12-07T09:22:25.065Z,998.08
2018-12-07T09:23:25.044Z,998.07
2018-12-07T09:24:25.021Z,998.04
2018-12-07T09:25:25.013Z,998.05
2018-12-07T09:26:25.006Z,998.03
2018-12-07T09:27:24.991Z,998.04
2018-12-07T09:28:24.995Z,998.02
2018-12-07T09:29:25.014Z,998.02
2018-12-07T09:30:24.961Z,997.98
2018-12-07T09:31:24.947Z,997.99
2018-12-07T09:32:24.975Z,997.97
2018-12-07T09:33:24.930Z,997.95
2018-12-07T09:34:24.925Z,997.95
2018-12-07T09:35:24.914Z,997.91
2018-12-07T09:36:24.908Z,997.89
2018-12-07T09:37:24.948Z,997.90
2018-12-07T09:38:24.909Z,997.93
2018-12-07T09:39:24.861Z,997.90
2018-12-07T09:40:24.862Z,997.82
2018-12-07T09:41:24.840Z,997.84
2018-12-07T09:42:24.859Z,997.82
2018-12-07T09:43:24.851Z,997.83
2018-12-07T09:44:25.815Z,997.79
2018-12-07T09:45:24.800Z,997.80
2018-12-07T09:46:24.776Z,997.74
2018-12-07T09:47:24.795Z,997.71
2018-12-07T09:48:24.769Z,997.76
2018-12-07T09:49:24.832Z,997.70
2018-12-07T09:50:24.758Z,997.64
2018-12-07T09:51:24.787Z,997.64
2018-12-07T09:52:24.748Z,997.63
2018-12-07T09:53:24.709Z,997.63
2018-12-07T09:54:24.695Z,997.60
2018-12-07T09:55:24.676Z,997.58
2018-12-07T09:56:24.671Z,997.57
2018-12-07T09:57:24.680Z,997.53
2018-12-07T09:58:24.671Z,997.57
2018-12-07T09:59:24.654Z,997.53
2018-12-07T10:00:24.644Z,997.51
2018-12-07T10:01:24.649Z,997.47
2018-12-07T10:02:24.636Z,997.46
2018-12-07T10:03:24.612Z,997.37
2018-12-07T10:04:24.682Z,997.39
2018-12-07T10:05:24.600Z,997.39
2018-12-07T10:06:24.570Z,997.40
2018-12-07T10:07:24.583Z,997.38
2018-12-07T10:08:24.549Z,997.36
2018-12-07T10:09:24.537Z,997.25
2018-12-07T10:10:24.744Z,997.26
2018-12-07T10:11:24.660Z,997.24
2018-12-07T10:12:24.639Z,997.15
2018-12-07T10:13:24.589Z,997.15
2018-12-07T10:14:24.468Z,997.13
2018-12-07T10:15:24.458Z,997.14
2018-12-07T10:16:24.498Z,997.12
2018-12-07T10:17:24.461Z,997.12
2018-12-07T10:18:24.578Z,997.10
2018-12-07T10:19:24.427Z,997.11
2018-12-07T10:20:24.483Z,997.09
2018-12-07T10:21:24.454Z,997.02
2018-12-07T10:22:24.406Z,996.99
2018-12-07T10:23:24.397Z,996.97
2018-12-07T10:24:24.545Z,996.97
2018-12-07T10:25:24.353Z,996.96
2018-12-07T10:26:24.339Z,996.93
2018-12-07T10:27:24.357Z,996.90
2018-12-07T10:28:24.338Z,996.85
2018-12-07T10:29:25.031Z,996.81
2018-12-07T10:30:24.307Z,996.85
2018-12-07T10:31:24.287Z,996.76
2018-12-07T10:32:24.301Z,996.72
2018-12-07T10:33:24.306Z,996.75
2018-12-07T10:34:24.334Z,996.65
2018-12-07T10:35:24.256Z,996.60
2018-12-07T10:36:24.249Z,996.56
2018-12-07T10:37:24.245Z,996.60
2018-12-07T10:38:24.223Z,996.54
2018-12-07T10:39:24.203Z,996.54
2018-12-07T10:40:24.271Z,996.50
2018-12-07T10:41:24.187Z,996.54
2018-12-07T10:42:24.200Z,996.50
2018-12-07T10:43:24.303Z,996.50
2018-12-07T10:44:24.205Z,996.48
2018-12-07T10:45:24.131Z,996.48
2018-12-07T10:46:24.123Z,996.46
2018-12-07T10:47:24.140Z,996.44
2018-12-07T10:48:24.127Z,996.37
2018-12-07T10:49:24.103Z,996.42
2018-12-07T10:50:24.113Z,996.37
2018-12-07T10:51:24.159Z,996.33
2018-12-07T10:52:25.388Z,996.29
2018-12-07T10:53:24.082Z,996.29
2018-12-07T10:54:24.074Z,996.28
2018-12-07T10:55:24.019Z,996.25
2018-12-07T10:56:24.017Z,996.25
2018-12-07T10:57:24.132Z,996.21
2018-12-07T10:58:24.023Z,996.16
2018-12-07T11:00:34.319Z,996.08
2018-12-07T11:01:35.309Z,996.02
2018-12-07T11:02:35.317Z,995.95
2018-12-07T11:03:35.308Z,995.92
2018-12-07T11:04:35.305Z,995.93
2018-12-07T11:05:35.321Z,995.90
2018-12-07T11:06:35.278Z,995.87
2018-12-07T11:07:36.077Z,995.82
2018-12-07T11:08:35.255Z,995.77
2018-12-07T11:09:35.248Z,995.72
2018-12-07T11:10:35.223Z,995.72
2018-12-07T11:11:35.292Z,995.67
2018-12-07T11:12:36.256Z,995.58
2018-12-07T11:13:35.206Z,995.58
2018-12-07T11:14:35.197Z,995.52
2018-12-07T11:15:35.168Z,995.49
2018-12-07T11:16:35.141Z,995.52
2018-12-07T11:17:35.134Z,995.47
2018-12-07T11:18:35.153Z,995.42
2018-12-07T11:19:35.219Z,995.35
2018-12-07T11:20:35.102Z,995.28
2018-12-07T11:21:35.098Z,995.20
2018-12-07T11:22:35.093Z,995.28
2018-12-07T11:23:35.095Z,995.21
2018-12-07T11:24:35.073Z,995.15
2018-12-07T11:25:35.059Z,995.08
2018-12-07T11:26:35.034Z,995.17
2018-12-07T11:27:35.028Z,995.18
2018-12-07T11:28:35.010Z,995.15
2018-12-07T11:29:35.102Z,995.15
2018-12-07T11:30:35.317Z,995.11
2018-12-07T11:31:34.983Z,995.05
2018-12-07T11:32:34.983Z,995.07
2018-12-07T11:33:35.062Z,995.04
2018-12-07T11:34:34.999Z,995.01
2018-12-07T11:35:34.969Z,994.97
2018-12-07T11:36:34.929Z,994.93
2018-12-07T11:37:34.938Z,994.93
2018-12-07T11:38:35.010Z,994.84
2018-12-07T11:39:36.223Z,994.92
2018-12-07T11:40:34.992Z,994.98
2018-12-07T11:41:34.913Z,994.96
2018-12-07T11:42:41.435Z,994.90
2018-12-07T11:43:35.008Z,994.89
2018-12-07T11:44:36.577Z,994.86
2018-12-07T11:45:35.477Z,994.83
2018-12-07T11:46:34.816Z,994.84
2018-12-07T11:47:34.820Z,994.85
2018-12-07T11:48:34.799Z,994.81
2018-12-07T11:49:34.842Z,994.77
2018-12-07T11:50:35.067Z,994.74
2018-12-07T11:51:35.107Z,994.66
2018-12-07T11:52:34.755Z,994.66
2018-12-07T11:53:34.791Z,994.65
2018-12-07T11:54:34.759Z,994.60
2018-12-07T11:55:35.479Z,994.58
2018-12-07T11:56:34.710Z,994.51
2018-12-07T11:57:35.397Z,994.52
2018-12-07T11:58:34.711Z,994.50
2018-12-07T11:59:34.706Z,994.41
2018-12-07T12:00:34.675Z,994.41
2018-12-07T12:01:34.665Z,994.42
2018-12-07T12:02:34.683Z,994.42
2018-12-07T12:03:34.696Z,994.42
2018-12-07T12:04:34.687Z,994.38
2018-12-07T12:05:34.687Z,994.31
2018-12-07T12:06:34.647Z,994.48
2018-12-07T12:07:34.593Z,994.42
2018-12-07T12:08:34.686Z,994.40
2018-12-07T12:09:34.605Z,994.39
2018-12-07T12:10:35.012Z,994.39
2018-12-07T12:11:34.553Z,994.35
2018-12-07T12:12:34.643Z,994.31
2018-12-07T12:13:34.546Z,994.26
2018-12-07T12:14:34.548Z,994.20
2018-12-07T12:15:34.501Z,994.15
2018-12-07T12:16:34.495Z,994.17
2018-12-07T12:17:34.481Z,994.20
2018-12-07T12:18:34.474Z,994.16
2018-12-07T12:19:34.490Z,994.14
2018-12-07T12:20:34.460Z,994.20
2018-12-07T12:21:34.448Z,994.16
2018-12-07T12:22:34.427Z,994.15
2018-12-07T12:23:34.426Z,994.14
2018-12-07T12:24:34.415Z,993.99